createdAt,value
2023-06-09T00:00:29.071Z,54.70313
2023-06-09T00:00:59.064Z,55.21289
2023-06-09T00:01:29.062Z,54.86328
2023-06-09T00:01:59.085Z,56.0332
2023-06-09T00:02:29.132Z,55.48633
2023-06-09T00:03:00.010Z,55.41699
2023-06-09T00:03:29.162Z,55.19922
2023-06-09T00:03:59.158Z,55.56445
2023-06-09T00:04:29.106Z,55.05273
2023-06-09T00:04:59.065Z,55.3125
2023-06-09T00:05:29.066Z,54.66992
2023-06-09T00:05:59.063Z,54.74512
2023-06-09T00:06:29.067Z,54.44141
2023-06-09T00:06:59.065Z,54.26758
2023-06-09T00:07:29.068Z,54.35449
2023-06-09T00:07:59.068Z,54.47461
2023-06-09T00:08:29.069Z,54.50488
2023-06-09T00:08:59.074Z,55.42773
2023-06-09T00:09:29.076Z,55.02539
2023-06-09T00:09:59.072Z,54.8623
2023-06-09T00:10:29.075Z,54.72461
2023-06-09T00:10:59.068Z,55.86816
2023-06-09T00:11:29.066Z,55.09863
2023-06-09T00:11:59.098Z,55.19727
2023-06-09T00:12:29.070Z,55.16699
2023-06-09T00:12:59.076Z,54.96484
2023-06-09T00:13:29.073Z,55.43262
2023-06-09T00:13:59.072Z,55.01074
2023-06-09T00:14:29.079Z,54.68457
2023-06-09T00:14:59.075Z,54.45605
2023-06-09T00:15:29.078Z,54.48828
2023-06-09T00:15:59.080Z,54.38086
2023-06-09T00:16:29.100Z,54.70605
2023-06-09T00:16:59.079Z,55.45605
2023-06-09T00:17:29.121Z,55.00879
2023-06-09T00:17:59.120Z,55.0625
2023-06-09T00:18:29.090Z,55.33398
2023-06-09T00:18:59.086Z,55.18066
2023-06-09T00:19:29.076Z,55.32227
2023-06-09T00:19:59.071Z,55.07129
2023-06-09T00:20:29.073Z,54.98242
2023-06-09T00:20:59.074Z,55.41699
2023-06-09T00:21:29.068Z,55.3418
2023-06-09T00:21:59.073Z,55.10254
2023-06-09T00:22:29.078Z,55.11328
2023-06-09T00:22:59.077Z,55.74414
2023-06-09T00:23:29.137Z,55.7998
2023-06-09T00:23:59.109Z,56.13672
2023-06-09T00:24:29.081Z,56.17969
2023-06-09T00:24:59.074Z,55.90918
2023-06-09T00:25:29.073Z,56.21191
2023-06-09T00:25:59.068Z,56.08008
2023-06-09T00:26:29.075Z,55.91699
2023-06-09T00:26:59.092Z,55.66699
2023-06-09T00:27:29.073Z,56.41797
2023-06-09T00:27:59.070Z,55.9502
2023-06-09T00:28:29.072Z,56.10254
2023-06-09T00:28:59.077Z,55.94922
2023-06-09T00:29:29.073Z,55.64355
2023-06-09T00:29:59.086Z,55.38281
2023-06-09T00:30:38.959Z,55.6084
2023-06-09T00:31:00.435Z,55.52148
2023-06-09T00:31:29.140Z,55.80273
2023-06-09T00:31:59.073Z,55.97363
2023-06-09T00:32:29.179Z,56.05957
2023-06-09T00:32:59.101Z,56.66602
2023-06-09T00:33:29.083Z,56.30566
2023-06-09T00:33:59.085Z,55.60938
2023-06-09T00:34:29.072Z,55.63184
2023-06-09T00:34:59.075Z,55.47852
2023-06-09T00:35:29.080Z,55.7168
2023-06-09T00:35:59.072Z,55.66406
2023-06-09T00:36:29.092Z,55.81738
2023-06-09T00:36:59.087Z,55.8291
2023-06-09T00:37:29.071Z,56.06836
2023-06-09T00:37:59.074Z,56.58984
2023-06-09T00:38:29.075Z,56.17578
2023-06-09T00:38:59.075Z,56.53418
2023-06-09T00:39:29.078Z,56.55566
2023-06-09T00:39:59.082Z,56.39258
2023-06-09T00:40:29.074Z,56.38379
2023-06-09T00:40:59.073Z,56.62402
2023-06-09T00:41:29.085Z,56.39746
2023-06-09T00:41:59.079Z,56.82422
2023-06-09T00:42:29.096Z,57.13086
2023-06-09T00:42:59.073Z,56.5791
2023-06-09T00:43:29.073Z,56.34082
2023-06-09T00:43:59.080Z,56.36719
2023-06-09T00:44:29.075Z,55.97754
2023-06-09T00:44:59.075Z,55.6543
2023-06-09T00:45:29.099Z,55.83105
2023-06-09T00:45:59.077Z,55.50684
2023-06-09T00:46:29.129Z,55.69141
2023-06-09T00:46:59.194Z,55.47559
2023-06-09T00:47:29.105Z,55.04004
2023-06-09T00:47:59.089Z,55.23633
2023-06-09T00:48:29.091Z,55.11719
2023-06-09T00:48:59.093Z,54.94824
2023-06-09T00:49:29.078Z,55.65723
2023-06-09T00:49:59.074Z,56.19238
2023-06-09T00:50:29.087Z,55.87695
2023-06-09T00:50:59.102Z,55.90039
2023-06-09T00:51:29.076Z,55.40137
2023-06-09T00:51:59.083Z,56.05469
2023-06-09T00:52:29.083Z,55.75977
2023-06-09T00:52:59.077Z,54.96484
2023-06-09T00:53:29.111Z,55.68262
2023-06-09T00:53:59.086Z,55.87988
2023-06-09T00:54:29.084Z,55.42383
2023-06-09T00:54:59.090Z,54.96973
2023-06-09T00:55:29.079Z,55.33008
2023-06-09T00:55:59.083Z,55.69141
2023-06-09T00:56:29.077Z,55.25684
2023-06-09T00:56:59.092Z,54.66113
2023-06-09T00:57:29.079Z,54.88184
2023-06-09T00:57:59.078Z,54.61133
2023-06-09T00:58:29.081Z,55.10254
2023-06-09T00:58:59.081Z,54.22266
2023-06-09T00:59:29.080Z,54.64746
2023-06-09T00:59:59.084Z,54.5957
2023-06-09T01:00:29.176Z,54.68555
2023-06-09T01:00:59.095Z,54.93555
2023-06-09T01:01:29.144Z,54.82813
2023-06-09T01:01:59.083Z,55.17578
2023-06-09T01:02:29.105Z,54.75195
2023-06-09T01:02:59.177Z,54.67773
2023-06-09T01:03:29.182Z,54.72363
2023-06-09T01:03:59.187Z,54.96387
2023-06-09T01:04:29.082Z,55.52148
2023-06-09T01:04:59.085Z,55.4043
2023-06-09T01:05:29.112Z,55.37305
2023-06-09T01:05:59.085Z,55.94824
2023-06-09T01:06:29.082Z,56.37207
2023-06-09T01:06:59.084Z,55.50488
2023-06-09T01:07:29.085Z,55.49512
2023-06-09T01:07:59.129Z,54.48242
2023-06-09T01:08:29.086Z,54.49316
2023-06-09T01:08:59.088Z,54.88281
2023-06-09T01:09:29.087Z,54.87109
2023-06-09T01:09:59.094Z,55.4668
2023-06-09T01:10:29.085Z,55.25684
2023-06-09T01:10:59.085Z,54.95117
2023-06-09T01:11:29.084Z,55.3418
2023-06-09T01:11:59.093Z,55.02344
2023-06-09T01:12:29.085Z,54.78418
2023-06-09T01:12:59.082Z,55.76172
2023-06-09T01:13:29.081Z,55.47852
2023-06-09T01:13:59.084Z,55.93359
2023-06-09T01:14:29.084Z,56.04102
2023-06-09T01:14:59.088Z,56.01855
2023-06-09T01:15:29.090Z,56.62598
2023-06-09T01:15:59.135Z,56.22266
2023-06-09T01:16:29.168Z,55.80957
2023-06-09T01:16:59.177Z,56.375
2023-06-09T01:17:29.154Z,56.29785
2023-06-09T01:17:59.132Z,55.85156
2023-06-09T01:18:29.091Z,55.50684
2023-06-09T01:18:59.092Z,54.88965
2023-06-09T01:19:29.098Z,55.14258
2023-06-09T01:19:59.087Z,55.7334
2023-06-09T01:20:29.083Z,55.9082
2023-06-09T01:20:59.090Z,54.87598
2023-06-09T01:21:29.090Z,54.88672
2023-06-09T01:21:59.085Z,54.86426
2023-06-09T01:22:29.100Z,54.96191
2023-06-09T01:22:59.082Z,55.02734
2023-06-09T01:23:29.132Z,54.62598
2023-06-09T01:23:59.084Z,55.13965
2023-06-09T01:24:29.093Z,54.86816
2023-06-09T01:24:59.092Z,54.64258
2023-06-09T01:25:29.091Z,55.42871
2023-06-09T01:25:59.084Z,54.68066
2023-06-09T01:26:29.090Z,55.09668
2023-06-09T01:26:59.098Z,55.3291
2023-06-09T01:27:29.093Z,54.92871
2023-06-09T01:27:59.109Z,55.6416
2023-06-09T01:28:29.088Z,55.55957
2023-06-09T01:28:59.092Z,55.29199
2023-06-09T01:29:29.091Z,55.02344
2023-06-09T01:29:59.097Z,55.04785
2023-06-09T01:30:29.088Z,54.87598
2023-06-09T01:30:59.086Z,54.10254
2023-06-09T01:31:29.104Z,54.59473
2023-06-09T01:31:59.119Z,54.79199
2023-06-09T01:32:29.191Z,55.31641
2023-06-09T01:32:59.163Z,55.91504
2023-06-09T01:33:29.101Z,55.5459
2023-06-09T01:33:59.094Z,54.78516
2023-06-09T01:34:29.097Z,54.96973
2023-06-09T01:34:59.097Z,54.2959
2023-06-09T01:35:29.694Z,55.00488
2023-06-09T01:35:59.092Z,56.17188
2023-06-09T01:36:29.088Z,55.6377
2023-06-09T01:36:59.103Z,54.84375
2023-06-09T01:37:29.095Z,54.61426
2023-06-09T01:37:59.098Z,53.89551
2023-06-09T01:38:29.090Z,54.05859
2023-06-09T01:38:59.096Z,54.36426
2023-06-09T01:39:29.090Z,55.35742
2023-06-09T01:39:59.131Z,55.23828
2023-06-09T01:40:29.115Z,54.82715
2023-06-09T01:40:59.111Z,55.38574
2023-06-09T01:41:29.089Z,55.73535
2023-06-09T01:41:59.090Z,55.75098
2023-06-09T01:42:29.100Z,55.5918
2023-06-09T01:42:59.103Z,54.84473
2023-06-09T01:43:29.104Z,54.40234
2023-06-09T01:43:59.091Z,54.74316
2023-06-09T01:44:29.091Z,54.44238
2023-06-09T01:44:59.096Z,53.56348
2023-06-09T01:45:29.105Z,55.38867
2023-06-09T01:45:59.141Z,55.23926
2023-06-09T01:46:29.153Z,54.16406
2023-06-09T01:46:59.091Z,54.01367
2023-06-09T01:47:29.192Z,53.82031
2023-06-09T01:47:59.171Z,53.98438
2023-06-09T01:48:29.116Z,54.8125
2023-06-09T01:48:59.096Z,53.875
2023-06-09T01:49:29.107Z,54.0166
2023-06-09T01:49:59.088Z,53.80957
2023-06-09T01:50:29.090Z,54.02832
2023-06-09T01:50:59.094Z,53.76367
2023-06-09T01:51:29.107Z,52.94531
2023-06-09T01:51:59.103Z,52.77246
2023-06-09T01:52:29.097Z,53.63574
2023-06-09T01:52:59.102Z,52.86035
2023-06-09T01:53:29.129Z,53.07227
2023-06-09T01:53:59.097Z,55.30957
2023-06-09T01:54:29.101Z,52.97754
2023-06-09T01:54:59.090Z,53.77832
2023-06-09T01:55:29.100Z,53.28027
2023-06-09T01:55:59.095Z,53.28223
2023-06-09T01:56:29.097Z,53.52637
2023-06-09T01:56:59.123Z,55.06738
2023-06-09T01:57:29.102Z,55.76855
2023-06-09T01:57:59.097Z,54.05762
2023-06-09T01:58:29.099Z,53.9209
2023-06-09T01:58:59.095Z,54.31934
2023-06-09T01:59:29.098Z,54.19141
2023-06-09T01:59:59.097Z,52.89746
2023-06-09T02:00:29.093Z,52.66016
2023-06-09T02:00:59.094Z,52.84961
2023-06-09T02:01:29.123Z,53.125
2023-06-09T02:01:59.135Z,53.50879
2023-06-09T02:02:29.150Z,52.95605
2023-06-09T02:02:59.187Z,53.1543
2023-06-09T02:03:29.165Z,52.31641
2023-06-09T02:03:59.143Z,51.89258
2023-06-09T02:04:29.101Z,52.23145
2023-06-09T02:04:59.097Z,51.32715
2023-06-09T02:05:29.094Z,52.78125
2023-06-09T02:05:59.099Z,51.94922
2023-06-09T02:06:29.099Z,51.5127
2023-06-09T02:06:59.095Z,51.10059
2023-06-09T02:07:29.101Z,52.70898
2023-06-09T02:07:59.104Z,52.12207
2023-06-09T02:08:29.098Z,51.41504
2023-06-09T02:08:59.097Z,50.66211
2023-06-09T02:09:29.103Z,50.56543
2023-06-09T02:09:59.104Z,51.03711
2023-06-09T02:10:29.097Z,50.69141
2023-06-09T02:10:59.113Z,50.99023
2023-06-09T02:11:29.097Z,51.26563
2023-06-09T02:11:59.095Z,50.41602
2023-06-09T02:12:29.098Z,50.8877
2023-06-09T02:12:59.131Z,50.73633
2023-06-09T02:13:29.103Z,50.38672
2023-06-09T02:13:59.098Z,50.72852
2023-06-09T02:14:29.109Z,50.81738
2023-06-09T02:14:59.097Z,50.91895
2023-06-09T02:15:29.109Z,50.93359
2023-06-09T02:15:59.121Z,49.94141
2023-06-09T02:16:29.123Z,49.79297
2023-06-09T02:16:59.102Z,49.71973
2023-06-09T02:17:29.149Z,50.33496
2023-06-09T02:17:59.126Z,49.66797
2023-06-09T02:18:29.107Z,49.37402
2023-06-09T02:18:59.104Z,49.40625
2023-06-09T02:19:29.105Z,49.10254
2023-06-09T02:19:59.104Z,49.51953
2023-06-09T02:20:29.109Z,49.30273
2023-06-09T02:20:59.106Z,49.25879
2023-06-09T02:21:29.104Z,48.85547
2023-06-09T02:21:59.112Z,48.99121
2023-06-09T02:22:29.106Z,48.64648
2023-06-09T02:22:59.102Z,48.28809
2023-06-09T02:23:29.098Z,48.81641
2023-06-09T02:23:59.140Z,49.21484
2023-06-09T02:24:29.114Z,48.88965
2023-06-09T02:24:59.106Z,48.6416
2023-06-09T02:25:29.107Z,48.71289
2023-06-09T02:25:59.102Z,49.25
2023-06-09T02:26:29.101Z,48.93457
2023-06-09T02:26:59.102Z,48.99023
2023-06-09T02:27:29.108Z,48.63086
2023-06-09T02:27:59.135Z,47.98633
2023-06-09T02:28:29.102Z,47.87109
2023-06-09T02:28:59.117Z,48.32227
2023-06-09T02:29:29.125Z,47.89941
2023-06-09T02:29:59.109Z,48.44824
2023-06-09T02:30:29.122Z,47.64746
2023-06-09T02:30:59.109Z,47.96777
2023-06-09T02:31:29.164Z,47.78223
2023-06-09T02:31:59.142Z,47.48926
2023-06-09T02:32:29.156Z,47.31348
2023-06-09T02:32:59.157Z,47.17188
2023-06-09T02:33:29.106Z,47.69043
2023-06-09T02:33:59.107Z,46.91309
2023-06-09T02:34:29.112Z,45.85156
2023-06-09T02:34:59.129Z,46.14844
2023-06-09T02:35:29.106Z,46.80664
2023-06-09T02:35:59.126Z,46.12988
2023-06-09T02:36:29.112Z,46.02539
2023-06-09T02:36:59.105Z,45.93164
2023-06-09T02:37:29.110Z,46.16699
2023-06-09T02:37:59.116Z,46.83887
2023-06-09T02:38:29.105Z,46.3916
2023-06-09T02:38:59.124Z,47.16211
2023-06-09T02:39:29.113Z,47.3623
2023-06-09T02:39:59.114Z,46.88379
2023-06-09T02:40:29.125Z,46.1582
2023-06-09T02:40:59.110Z,46.54199
2023-06-09T02:41:29.112Z,47.52344
2023-06-09T02:41:59.108Z,47.53906
2023-06-09T02:42:29.116Z,47.48633
2023-06-09T02:42:59.110Z,46.10742
2023-06-09T02:43:29.116Z,46.45117
2023-06-09T02:43:59.108Z,45.99316
2023-06-09T02:44:29.108Z,45.45898
2023-06-09T02:44:59.116Z,45.80078
2023-06-09T02:45:29.142Z,46.01855
2023-06-09T02:45:59.177Z,46.70898
2023-06-09T02:46:29.130Z,46.44531
2023-06-09T02:46:59.109Z,46.17676
2023-06-09T02:47:29.163Z,46.20801
2023-06-09T02:47:59.170Z,45.82324
2023-06-09T02:48:29.117Z,46.33008
2023-06-09T02:48:59.128Z,46.04883
2023-06-09T02:49:29.117Z,45.5918
2023-06-09T02:49:59.114Z,45.50977
2023-06-09T02:50:29.113Z,46.00684
2023-06-09T02:50:59.118Z,46.0918
2023-06-09T02:51:29.109Z,46.13477
2023-06-09T02:51:59.122Z,46.0791
2023-06-09T02:52:29.120Z,45.77344
2023-06-09T02:52:59.163Z,45.25
2023-06-09T02:53:29.209Z,45.6709
2023-06-09T02:53:59.113Z,45.25684
2023-06-09T02:54:29.119Z,45.95313
2023-06-09T02:54:59.119Z,45.98926
2023-06-09T02:55:29.114Z,45.56152
2023-06-09T02:55:59.121Z,45.71582
2023-06-09T02:56:29.114Z,45.81445
2023-06-09T02:56:59.112Z,45.6748
2023-06-09T02:57:29.128Z,44.49512
2023-06-09T02:57:59.117Z,44.23242
2023-06-09T02:58:29.119Z,44.42969
2023-06-09T02:58:59.122Z,44.55469
2023-06-09T02:59:29.115Z,44.68945
2023-06-09T02:59:59.115Z,45.11035
2023-06-09T03:00:29.119Z,44.74023
2023-06-09T03:00:59.211Z,45.59863
2023-06-09T03:01:29.201Z,45.3457
2023-06-09T03:01:59.146Z,44.85156
2023-06-09T03:02:29.157Z,44.60156
2023-06-09T03:02:59.230Z,45.26172
2023-06-09T03:03:29.303Z,45.41895
2023-06-09T03:03:59.184Z,45.66016
2023-06-09T03:04:29.148Z,45.01074
2023-06-09T03:04:59.130Z,43.97852
2023-06-09T03:05:29.130Z,43.6416
2023-06-09T03:05:59.116Z,43.93262
2023-06-09T03:06:29.115Z,44.26563
2023-06-09T03:06:59.114Z,44.31445
2023-06-09T03:07:29.117Z,44.85742
2023-06-09T03:07:59.157Z,45.12695
2023-06-09T03:08:29.124Z,45.16406
2023-06-09T03:08:59.124Z,45.50781
2023-06-09T03:09:29.130Z,43.90234
2023-06-09T03:09:59.116Z,43.5293
2023-06-09T03:10:29.117Z,43.89453
2023-06-09T03:10:59.121Z,43.6875
2023-06-09T03:11:29.127Z,44.14063
2023-06-09T03:11:59.117Z,43.89453
2023-06-09T03:12:29.120Z,44.18164
2023-06-09T03:12:59.125Z,43.94043
2023-06-09T03:13:29.118Z,43.5127
2023-06-09T03:13:59.131Z,43.54688
2023-06-09T03:14:29.118Z,42.67969
2023-06-09T03:14:59.129Z,43.02832
2023-06-09T03:15:29.118Z,43.24902
2023-06-09T03:15:59.119Z,42.23535
2023-06-09T03:16:29.189Z,41.70605
2023-06-09T03:16:59.141Z,41.74902
2023-06-09T03:17:29.152Z,42.80566
2023-06-09T03:17:59.265Z,42.17578
2023-06-09T03:18:29.150Z,42.10059
2023-06-09T03:18:59.132Z,42.22656
2023-06-09T03:19:29.149Z,42.19727
2023-06-09T03:19:59.120Z,41.71387
2023-06-09T03:20:29.361Z,41.33398
2023-06-09T03:20:59.120Z,40.9502
2023-06-09T03:21:29.127Z,41.4375
2023-06-09T03:21:59.156Z,40.4043
2023-06-09T03:22:29.120Z,40.14355
2023-06-09T03:22:59.125Z,40.78418
2023-06-09T03:23:29.161Z,40.97266
2023-06-09T03:23:59.218Z,41.43555
2023-06-09T03:24:29.123Z,40.24512
2023-06-09T03:24:59.129Z,40.05957
2023-06-09T03:25:29.124Z,40.12988
2023-06-09T03:25:59.120Z,40.55566
2023-06-09T03:26:29.124Z,41.72168
2023-06-09T03:26:59.130Z,40.95313
2023-06-09T03:27:29.129Z,40.67871
2023-06-09T03:27:59.159Z,40.07129
2023-06-09T03:28:29.122Z,40.17285
2023-06-09T03:28:59.125Z,40.50586
2023-06-09T03:29:29.143Z,39.875
2023-06-09T03:29:59.136Z,39.95215
2023-06-09T03:30:29.125Z,40.21875
2023-06-09T03:30:59.170Z,40.01172
2023-06-09T03:31:29.216Z,39.93652
2023-06-09T03:31:59.132Z,40.12207
2023-06-09T03:32:29.162Z,40.08496
2023-06-09T03:32:59.250Z,40.25977
2023-06-09T03:33:29.132Z,40.16309
2023-06-09T03:33:59.133Z,39.44824
2023-06-09T03:34:29.137Z,39.36328
2023-06-09T03:34:59.139Z,39.21387
2023-06-09T03:35:29.123Z,39.61621
2023-06-09T03:35:59.132Z,39.60059
2023-06-09T03:36:29.124Z,40.06641
2023-06-09T03:36:59.132Z,40.03418
2023-06-09T03:37:29.137Z,39.66113
2023-06-09T03:37:59.123Z,40.16992
2023-06-09T03:38:29.130Z,40.52441
2023-06-09T03:38:59.135Z,39.95313
2023-06-09T03:39:29.135Z,40.22363
2023-06-09T03:39:59.130Z,40.02051
2023-06-09T03:40:29.130Z,39.9541
2023-06-09T03:40:59.128Z,39.67188
2023-06-09T03:41:29.129Z,39.4248
2023-06-09T03:41:59.171Z,39.75195
2023-06-09T03:42:29.125Z,39.49805
2023-06-09T03:42:59.133Z,39.02441
2023-06-09T03:43:29.128Z,38.67383
2023-06-09T03:43:59.128Z,38.92773
2023-06-09T03:44:29.131Z,38.6875
2023-06-09T03:44:59.126Z,38.89063
2023-06-09T03:45:29.129Z,39.73828
2023-06-09T03:45:59.136Z,39.33301
2023-06-09T03:46:29.225Z,39.46094
2023-06-09T03:46:59.266Z,38.19824
2023-06-09T03:47:29.184Z,36.86719
2023-06-09T03:47:59.217Z,34.72949
2023-06-09T03:48:29.131Z,32.28027
2023-06-09T03:48:59.136Z,29.57715
2023-06-09T03:49:29.150Z,27.45508
2023-06-09T03:49:59.138Z,24.95605
2023-06-09T03:50:29.129Z,23.97461
2023-06-09T03:50:59.139Z,22.58594
2023-06-09T03:51:29.133Z,21.37207
2023-06-09T03:51:59.142Z,20.06934
2023-06-09T03:52:29.134Z,19.41406
2023-06-09T03:52:59.130Z,19.90723
2023-06-09T03:53:29.130Z,18.99902
2023-06-09T03:53:59.157Z,18.91895
2023-06-09T03:54:29.140Z,19.0332
2023-06-09T03:54:59.137Z,19.25684
2023-06-09T03:55:29.132Z,18.96582
2023-06-09T03:55:59.132Z,18.72168
2023-06-09T03:56:29.133Z,17.68457
2023-06-09T03:56:59.134Z,16.53613
2023-06-09T03:57:29.152Z,16.17676
2023-06-09T03:57:59.134Z,15.50195
2023-06-09T03:58:29.139Z,15.79199
2023-06-09T03:58:59.152Z,15.47168
2023-06-09T03:59:29.150Z,14.6084
2023-06-09T03:59:59.142Z,14.00195
2023-06-09T04:00:29.139Z,13.95996
2023-06-09T04:00:59.150Z,13.54883
2023-06-09T04:01:29.138Z,13.41699
2023-06-09T04:01:59.167Z,12.98535
2023-06-09T04:02:29.306Z,13.54297
2023-06-09T04:02:59.157Z,13.2998
2023-06-09T04:03:29.155Z,13.25195
2023-06-09T04:03:59.166Z,12.67578
2023-06-09T04:04:29.194Z,12.54297
2023-06-09T04:04:59.141Z,12.54883
2023-06-09T04:05:29.138Z,12.30957
2023-06-09T04:05:59.159Z,12.23438
2023-06-09T04:06:29.139Z,11.82422
2023-06-09T04:06:59.143Z,11.26563
2023-06-09T04:07:29.145Z,11.1543
2023-06-09T04:07:59.142Z,11.77637
2023-06-09T04:08:29.146Z,11.34668
2023-06-09T04:08:59.141Z,11.24805
2023-06-09T04:09:29.141Z,10.92676
2023-06-09T04:09:59.148Z,10.58496
2023-06-09T04:10:29.145Z,10.0752
2023-06-09T04:10:59.142Z,10.25293
2023-06-09T04:11:29.150Z,11.09082
2023-06-09T04:11:59.141Z,10.93555
2023-06-09T04:12:29.144Z,11.02637
2023-06-09T04:12:59.150Z,11.01172
2023-06-09T04:13:29.152Z,10.55957
2023-06-09T04:13:59.145Z,10.45801
2023-06-09T04:14:29.148Z,9.939453
2023-06-09T04:14:59.145Z,9.698242
2023-06-09T04:15:29.186Z,9.772461
2023-06-09T04:15:59.177Z,10.22168
2023-06-09T04:16:29.185Z,10.12793
2023-06-09T04:16:59.200Z,9.849609
2023-06-09T04:17:29.250Z,10.07227
2023-06-09T04:17:59.227Z,11.02441
2023-06-09T04:18:29.177Z,10.99414
2023-06-09T04:18:59.161Z,10.6084
2023-06-09T04:19:29.159Z,9.981445
2023-06-09T04:19:59.150Z,9.75293
2023-06-09T04:20:29.164Z,9.805664
2023-06-09T04:20:59.148Z,10.49609
2023-06-09T04:21:29.152Z,10.71094
2023-06-09T04:21:59.145Z,10.52734
2023-06-09T04:22:29.169Z,10.20801
2023-06-09T04:22:59.149Z,10.37988
2023-06-09T04:23:29.192Z,10.51855
2023-06-09T04:23:59.218Z,10.13574
2023-06-09T04:24:29.159Z,10.43848
2023-06-09T04:24:59.146Z,10.07227
2023-06-09T04:25:29.152Z,11.85742
2023-06-09T04:25:59.150Z,12.54492
2023-06-09T04:26:29.162Z,12.51563
2023-06-09T04:26:59.166Z,12.35645
2023-06-09T04:27:29.158Z,11.98047
2023-06-09T04:27:59.153Z,11.42773
2023-06-09T04:28:29.169Z,11.75781
2023-06-09T04:28:59.153Z,10.68359
2023-06-09T04:29:29.166Z,11.625
2023-06-09T04:29:59.156Z,11.35742
2023-06-09T04:30:29.151Z,11.47949
2023-06-09T04:30:59.152Z,10.74219
2023-06-09T04:31:29.190Z,10.88281
2023-06-09T04:31:59.202Z,11.64746
2023-06-09T04:32:29.212Z,11.1123
2023-06-09T04:32:59.178Z,11.21973
2023-06-09T04:33:29.167Z,10.64746
2023-06-09T04:33:59.158Z,10.81543
2023-06-09T04:34:29.157Z,10.21484
2023-06-09T04:34:59.158Z,10.2041
2023-06-09T04:35:29.157Z,11.21289
2023-06-09T04:35:59.158Z,10.80469
2023-06-09T04:36:29.155Z,10.58594
2023-06-09T04:36:59.154Z,10.57422
2023-06-09T04:37:29.157Z,11.79102
2023-06-09T04:38:00.829Z,12.0752
2023-06-09T04:38:30.112Z,12.80762
2023-06-09T04:38:59.156Z,12.62793
2023-06-09T04:39:29.157Z,11.67969
2023-06-09T04:39:59.153Z,11.50098
2023-06-09T04:40:29.154Z,13.3252
2023-06-09T04:40:59.234Z,13.39844
2023-06-09T04:41:29.154Z,13.11719
2023-06-09T04:41:59.157Z,14.02344
2023-06-09T04:42:29.162Z,14.00684
2023-06-09T04:42:59.160Z,13.05859
2023-06-09T04:43:29.157Z,13.26855
2023-06-09T04:43:59.163Z,12.64551
2023-06-09T04:44:29.155Z,12.28027
2023-06-09T04:44:59.158Z,12.95215
2023-06-09T04:45:29.219Z,13.0127
2023-06-09T04:45:59.163Z,14.1582
2023-06-09T04:46:29.205Z,14.30957
2023-06-09T04:46:59.163Z,13.78711
2023-06-09T04:47:29.188Z,13.89844
2023-06-09T04:47:59.191Z,13.84082
2023-06-09T04:48:29.159Z,13.47363
2023-06-09T04:48:59.163Z,13.40918
2023-06-09T04:49:29.164Z,14.2832
2023-06-09T04:49:59.165Z,14.87695
2023-06-09T04:50:29.164Z,14.72852
2023-06-09T04:50:59.190Z,13.68848
2023-06-09T04:51:29.158Z,13.14941
2023-06-09T04:51:59.161Z,12.33984
2023-06-09T04:52:29.164Z,13.02832
2023-06-09T04:52:59.164Z,13.42188
2023-06-09T04:53:29.161Z,13.13281
2023-06-09T04:53:59.166Z,12.85938
2023-06-09T04:54:29.161Z,12.95703
2023-06-09T04:54:59.159Z,12.5459
2023-06-09T04:55:29.169Z,11.93848
2023-06-09T04:55:59.162Z,11.89844
2023-06-09T04:56:29.178Z,13.02539
2023-06-09T04:56:59.170Z,13.47949
2023-06-09T04:57:29.162Z,15.45117
2023-06-09T04:57:59.168Z,14.98438
2023-06-09T04:58:29.174Z,14.20508
2023-06-09T04:58:59.160Z,14.65039
2023-06-09T04:59:29.170Z,15.57617
2023-06-09T04:59:59.170Z,14.68262
2023-06-09T05:00:29.172Z,14.18652
2023-06-09T05:00:59.168Z,13.15625
2023-06-09T05:01:29.195Z,13.66113
2023-06-09T05:01:59.344Z,13.50684
2023-06-09T05:02:30.704Z,14.25586
2023-06-09T05:03:00.264Z,15.80566
2023-06-09T05:03:29.165Z,15.89648
2023-06-09T05:03:59.165Z,15.44141
2023-06-09T05:04:29.165Z,15.05078
2023-06-09T05:04:59.183Z,13.97754
2023-06-09T05:05:29.191Z,13.42383
2023-06-09T05:05:59.168Z,13.0498
2023-06-09T05:06:29.171Z,13.41602
2023-06-09T05:06:59.160Z,13.46777
2023-06-09T05:07:29.181Z,14.17285
2023-06-09T05:07:59.164Z,13.20313
2023-06-09T05:08:31.621Z,12.74316
2023-06-09T05:09:00.431Z,11.96484
2023-06-09T05:09:29.184Z,11.89551
2023-06-09T05:09:59.174Z,10.95215
2023-06-09T05:10:29.168Z,10.89355
2023-06-09T05:10:59.166Z,10.90918
2023-06-09T05:11:29.165Z,10.76074
2023-06-09T05:11:59.163Z,10.9375
2023-06-09T05:12:29.164Z,11.48633
2023-06-09T05:12:59.176Z,12.04785
2023-06-09T05:13:29.170Z,14.08301
2023-06-09T05:13:59.168Z,13.83105
2023-06-09T05:14:31.963Z,13.37305
2023-06-09T05:15:00.285Z,13.29785
2023-06-09T05:15:29.207Z,13.6875
2023-06-09T05:15:59.183Z,12.49902
2023-06-09T05:16:29.199Z,12.56641
2023-06-09T05:16:59.168Z,11.90234
2023-06-09T05:17:29.274Z,13.41016
2023-06-09T05:17:59.277Z,13.73926
2023-06-09T05:18:29.170Z,14.46094
2023-06-09T05:18:59.172Z,13.69434
2023-06-09T05:19:29.169Z,12.68164
2023-06-09T05:19:59.173Z,12.72461
2023-06-09T05:20:29.176Z,13.97363
2023-06-09T05:20:59.179Z,14.22168
2023-06-09T05:21:29.180Z,13.14453
2023-06-09T05:21:59.168Z,12.52148
2023-06-09T05:22:29.199Z,12.91309
2023-06-09T05:22:59.171Z,11.99219
2023-06-09T05:23:29.196Z,11.88281
2023-06-09T05:23:59.267Z,12.65137
2023-06-09T05:24:29.179Z,11.9668
2023-06-09T05:24:59.175Z,13.16797
2023-06-09T05:25:29.175Z,14.5752
2023-06-09T05:25:59.170Z,15.23145
2023-06-09T05:26:29.173Z,15.08984
2023-06-09T05:26:59.179Z,13.58887
2023-06-09T05:27:29.174Z,12.6875
2023-06-09T05:27:59.174Z,12.90332
2023-06-09T05:28:29.174Z,12.9668
2023-06-09T05:28:59.172Z,12.33398
2023-06-09T05:29:29.170Z,13.10938
2023-06-09T05:29:59.177Z,12.95996
2023-06-09T05:30:29.178Z,13.02246
2023-06-09T05:30:59.170Z,12.05176
2023-06-09T05:31:29.230Z,11.70117
2023-06-09T05:31:59.218Z,11.49707
2023-06-09T05:32:29.190Z,12.5498
2023-06-09T05:32:59.246Z,13.39844
2023-06-09T05:33:29.178Z,13
2023-06-09T05:33:59.176Z,12.55273
2023-06-09T05:34:29.175Z,12.65625
2023-06-09T05:34:59.172Z,12.67871
2023-06-09T05:35:29.177Z,13.45313
2023-06-09T05:35:59.183Z,13.09863
2023-06-09T05:36:29.193Z,13.75
2023-06-09T05:36:59.195Z,13.47949
2023-06-09T05:37:29.186Z,12.17285
2023-06-09T05:37:59.174Z,11.49902
2023-06-09T05:38:29.191Z,10.66406
2023-06-09T05:38:59.191Z,10.04004
2023-06-09T05:39:29.181Z,9.869141
2023-06-09T05:39:59.177Z,9.56543
2023-06-09T05:40:29.182Z,9.663086
2023-06-09T05:40:59.186Z,12.16211
2023-06-09T05:41:29.179Z,12.61719
2023-06-09T05:41:59.192Z,13
2023-06-09T05:42:29.187Z,11.91699
2023-06-09T05:42:59.189Z,11.1377
2023-06-09T05:43:29.182Z,11.49902
2023-06-09T05:43:59.227Z,11.83398
2023-06-09T05:44:29.194Z,11.30273
2023-06-09T05:44:59.183Z,10.90039
2023-06-09T05:45:29.188Z,11.03906
2023-06-09T05:45:59.229Z,10.43555
2023-06-09T05:46:29.348Z,12.06152
2023-06-09T05:46:59.186Z,12.0166
2023-06-09T05:47:29.207Z,12.47559
2023-06-09T05:47:59.245Z,12.18262
2023-06-09T05:48:29.185Z,11.53516
2023-06-09T05:48:59.200Z,10.55859
2023-06-09T05:49:29.204Z,10.44629
2023-06-09T05:49:59.183Z,9.972656
2023-06-09T05:50:29.200Z,9.563477
2023-06-09T05:50:59.228Z,10.4082
2023-06-09T05:51:29.188Z,10.54004
2023-06-09T05:51:59.192Z,11.15723
2023-06-09T05:52:31.035Z,10.74902
2023-06-09T05:52:59.194Z,10.49316
2023-06-09T05:53:29.192Z,10.52051
2023-06-09T05:53:59.187Z,10.79102